Toyama Airport, Japan

2:01 AM JST on August 28, 2016 (GMT +0900)
JR9MAR-WX | | Change Station

Elev 325 ft 36.57 °N, 136.98 °E | Updated 3 seconds ago

Mostly Cloudy
Mostly Cloudy
69.2 °F
Feels Like 69.2 °F
N
1.4
Wind Variable Wind from SSW
Gusts 3.1 mph

Today
High -- | Low -- °F
--% Chance of Precip.
Yesterday
High -- | Low -- °F
Precip. -- in
Pressure 29.65 in
Visibility 6.2 miles
Clouds Few 2000 ft
Mostly Cloudy 5000 ft
Dew Point 68 °F
Humidity 94%
Rainfall 0.00 in
Snow Depth Not available.
5:19 AM 6:25 PM
Waning Crescent, 23% visible
METAR RJNK 271600Z 06006KT 040V100 9999 FEW020 BKN050 21/18 Q1004
Pressure 29.65 in
Visibility 6.2 miles
Clouds Few 2000 ft
Mostly Cloudy 5000 ft
Dew Point 68 °F
Humidity 94%
Rainfall 0.00 in
Snow Depth Not available.
5:19 AM 6:25 PM
Waning Crescent, 23% visible
METAR RJNK 271600Z 06006KT 040V100 9999 FEW020 BKN050 21/18 Q1004

10-Day Weather Forecast

No radar image for this location.
×

Almanac

Astronomy

Aug. 28, 2016 Rise Set
Actual Time
Civil Twilight
Nautical Twilight
Astronomical Twilight
Moon
Length of Visible Light
Length of Day
Tomorrow will be .
, % of the Moon is Illuminated

Today's Extremes

Country Highs Country Lows

Community

WunderPhotos

Upload Photos

1,935,383 photos uploaded!

WunderBlog® & News

Nearby

Air Quality

  Air Quality AQ Index Pollutant
Not available.

Snow Depth

Station Depth Elevation

Earthquake Activity

City Distance Mag. Time & Date
Minimum magnitude displayed is 2.5.

Coastal Water Temperatures

Place Temperature

Stations

Nearby Weather Stations

Station Location Temp. Windchill Dew Point Humidity Wind Precip. Elev Updated Type